Time;durP1;ratioP1;P1;durP2;ratioP2;P2;SDS_P1;SDS_P2;PMS_P1;PMS_P2;Temp;Humidity;BMP_temperature;BMP_pressure;BME280_temperature;BME280_humidity;BME280_pressure;Samples;Min_cycle;Max_cycle;Signal;HPM_P1;HPM_P2
2023/03/31 00:02:14;;;;;;;5.07;0.77;;;15.40;52.40;;;;;;4964566;28;20526;-89
2023/03/31 00:04:44;;;;;;;4.20;1.00;;;15.40;52.80;;;;;;4962516;28;20534;-88
2023/03/31 00:07:13;;;;;;;2.92;0.68;;;15.40;52.60;;;;;;4965144;28;20059;-87
2023/03/31 00:09:44;;;;;;;3.92;0.73;;;15.40;52.70;;;;;;4962341;28;20594;-89
2023/03/31 00:12:12;;;;;;;2.28;0.80;;;15.30;52.80;;;;;;4965703;28;20050;-88
2023/03/31 00:14:40;;;;;;;4.50;0.70;;;15.40;53.00;;;;;;4963182;28;20057;-88
2023/03/31 00:17:07;;;;;;;1.83;0.60;;;15.30;52.90;;;;;;4963600;28;20070;-88
2023/03/31 00:19:36;;;;;;;4.43;0.88;;;15.30;53.00;;;;;;4963756;28;20058;-89
2023/03/31 00:22:04;;;;;;;5.70;0.70;;;15.30;53.10;;;;;;4971287;28;20411;-89
2023/03/31 00:24:32;;;;;;;4.32;0.80;;;15.30;53.70;;;;;;4964313;28;20053;-88
2023/03/31 00:26:59;;;;;;;4.95;0.70;;;15.30;53.20;;;;;;4965585;28;20525;-88
2023/03/31 00:29:27;;;;;;;2.80;0.57;;;15.30;53.20;;;;;;4965524;28;20054;-89
2023/03/31 00:31:55;;;;;;;4.50;0.60;;;15.30;53.20;;;;;;4964088;28;20066;-88
2023/03/31 00:34:22;;;;;;;3.03;0.60;;;15.30;53.20;;;;;;4964094;28;20058;-88
2023/03/31 00:36:55;;;;;;;3.53;0.60;;;15.30;53.20;;;;;;4964797;28;20054;-87
2023/03/31 00:39:23;;;;;;;1.92;0.73;;;15.30;53.20;;;;;;4964480;28;20077;-87
2023/03/31 00:41:51;;;;;;;3.72;0.70;;;15.30;53.20;;;;;;4964221;28;20050;-87
2023/03/31 00:44:21;;;;;;;4.72;0.60;;;15.30;53.20;;;;;;4964265;28;20059;-88
2023/03/31 00:46:53;;;;;;;3.75;0.70;;;15.30;53.20;;;;;;4963676;28;20058;-88
2023/03/31 00:49:25;;;;;;;4.72;1.00;;;15.30;53.20;;;;;;4962388;28;20054;-87
2023/03/31 00:52:01;;;;;;;2.85;0.90;;;15.30;53.20;;;;;;4969547;28;20069;-87
2023/03/31 00:54:31;;;;;;;3.35;0.77;;;15.30;53.30;;;;;;4965519;28;20066;-89
2023/03/31 00:57:02;;;;;;;3.47;0.82;;;15.20;53.20;;;;;;4965217;28;20422;-89
2023/03/31 00:59:31;;;;;;;1.65;0.70;;;15.20;53.20;;;;;;4963072;28;20054;-88
2023/03/31 01:02:01;;;;;;;3.40;0.70;;;15.20;53.30;;;;;;4963789;28;20062;-88
2023/03/31 01:04:33;;;;;;;3.35;0.65;;;15.20;53.30;;;;;;4972584;23;20051;-45
2023/03/31 01:07:08;;;;;;;4.15;0.70;;;15.20;53.40;;;;;;4964145;28;20065;-44
2023/03/31 01:09:37;;;;;;;4.50;0.98;;;15.10;53.30;;;;;;4964908;28;20383;-43
2023/03/31 01:12:08;;;;;;;3.83;0.52;;;15.10;53.30;;;;;;4963927;28;20057;-44
2023/03/31 01:14:36;;;;;;;3.90;0.73;;;15.10;53.40;;;;;;4964690;28;20058;-44
2023/03/31 01:17:04;;;;;;;2.33;0.80;;;15.10;53.40;;;;;;4964450;28;20495;-45
2023/03/31 01:19:45;;;;;;;2.45;0.90;;;15.10;53.40;;;;;;4963302;28;20077;-45
2023/03/31 01:22:38;;;;;;;2.58;0.60;;;15.00;53.40;;;;;;4963388;28;20051;-44
2023/03/31 01:25:23;;;;;;;3.03;0.80;;;15.00;53.40;;;;;;4963677;28;20051;-44
2023/03/31 01:28:05;;;;;;;7.00;1.45;;;15.00;53.40;;;;;;4963104;28;20058;-43
2023/03/31 01:31:15;;;;;;;4.63;1.02;;;14.90;53.50;;;;;;4964224;28;20058;-44
2023/03/31 01:34:24;;;;;;;8.82;1.17;;;14.90;53.60;;;;;;4963234;28;20082;-44
2023/03/31 01:37:24;;;;;;;6.28;1.23;;;14.90;53.70;;;;;;4962345;28;20054;-43
2023/03/31 01:40:26;;;;;;;6.25;1.60;;;14.90;53.90;;;;;;4965281;28;20410;-43
2023/03/31 01:43:03;;;;;;;8.02;1.63;;;14.90;53.90;;;;;;4940768;28;20055;-44
2023/03/31 01:45:43;;;;;;;10.15;1.90;;;14.80;53.90;;;;;;4962940;28;20058;-43
2023/03/31 01:48:17;;;;;;;6.47;1.20;;;14.80;54.10;;;;;;4962510;28;20059;-43
2023/03/31 01:50:47;;;;;;;7.50;1.25;;;14.80;54.10;;;;;;4964337;28;20058;-43
2023/03/31 01:53:20;;;;;;;7.13;1.38;;;14.80;54.20;;;;;;4964182;28;20059;-44
2023/03/31 01:55:57;;;;;;;8.52;1.45;;;14.80;54.30;;;;;;4964259;28;20055;-42
2023/03/31 01:58:28;;;;;;;8.93;1.77;;;14.90;54.90;;;;;;4964037;28;20058;-44
2023/03/31 02:01:02;;;;;;;7.82;1.80;;;14.80;54.40;;;;;;4963556;28;20062;-43
2023/03/31 02:03:33;;;;;;;5.35;1.20;;;14.80;54.40;;;;;;4961054;28;20063;-44
2023/03/31 02:06:08;;;;;;;7.03;1.73;;;14.80;54.40;;;;;;4965247;28;20051;-44
2023/03/31 02:08:40;;;;;;;8.02;1.58;;;14.90;54.40;;;;;;4963780;28;20055;-46
2023/03/31 02:11:10;;;;;;;8.75;1.42;;;14.90;54.50;;;;;;4964258;28;20058;-43
2023/03/31 02:13:40;;;;;;;7.53;1.55;;;14.90;54.60;;;;;;4955161;28;20454;-45
2023/03/31 02:16:13;;;;;;;10.15;1.55;;;14.90;54.50;;;;;;4962854;28;20058;-43
2023/03/31 02:18:41;;;;;;;6.07;1.05;;;14.90;54.60;;;;;;4963091;28;20722;-43
2023/03/31 02:21:09;;;;;;;7.75;1.75;;;14.90;54.60;;;;;;4963408;28;20612;-45
2023/03/31 02:23:38;;;;;;;4.05;1.25;;;14.90;54.60;;;;;;4964272;28;20062;-43
2023/03/31 02:26:11;;;;;;;9.75;2.03;;;14.90;54.60;;;;;;4963154;28;20407;-43
2023/03/31 02:28:39;;;;;;;7.53;2.03;;;14.90;54.70;;;;;;4963634;28;20068;-43
2023/03/31 02:31:20;;;;;;;8.10;1.65;;;14.90;54.70;;;;;;4964572;28;21917;-43
2023/03/31 02:33:48;;;;;;;8.88;1.38;;;14.90;54.80;;;;;;4962540;28;20573;-44
2023/03/31 02:36:15;;;;;;;3.75;1.10;;;14.90;54.70;;;;;;4963410;28;20042;-43
2023/03/31 02:38:47;;;;;;;5.78;0.82;;;14.90;54.80;;;;;;4964930;28;20062;-44
2023/03/31 02:41:16;;;;;;;8.55;1.30;;;14.90;55.00;;;;;;4963915;28;20047;-46
2023/03/31 02:43:43;;;;;;;5.78;1.80;;;14.90;55.00;;;;;;4960084;28;20062;-46
2023/03/31 02:46:10;;;;;;;4.97;1.00;;;14.90;55.00;;;;;;4963485;28;20058;-44
2023/03/31 02:48:39;;;;;;;7.97;1.45;;;14.90;55.00;;;;;;4962199;28;20059;-44
2023/03/31 02:51:32;;;;;;;4.43;1.10;;;14.90;55.00;;;;;;4963691;28;20054;-44
2023/03/31 02:54:23;;;;;;;9.00;1.52;;;14.90;55.00;;;;;;4962009;28;20081;-43
2023/03/31 02:57:13;;;;;;;5.82;1.10;;;14.90;55.10;;;;;;4960475;28;20081;-44
2023/03/31 02:59:52;;;;;;;8.40;1.40;;;14.90;55.20;;;;;;4962275;28;20418;-44
2023/03/31 03:02:25;;;;;;;11.93;1.73;;;14.90;55.20;;;;;;4963720;28;20062;-48
2023/03/31 03:05:19;;;;;;;5.32;1.40;;;14.90;55.20;;;;;;4960621;28;20113;-44
2023/03/31 03:07:54;;;;;;;4.45;1.00;;;14.90;55.30;;;;;;4963026;28;20051;-46
2023/03/31 03:10:32;;;;;;;6.72;1.20;;;14.90;55.20;;;;;;4963044;28;20050;-44
2023/03/31 03:13:09;;;;;;;10.00;1.70;;;14.90;55.30;;;;;;4964420;28;20474;-44
2023/03/31 03:15:43;;;;;;;7.97;1.23;;;14.90;55.50;;;;;;4961910;28;20430;-43
2023/03/31 03:18:10;;;;;;;4.47;1.10;;;14.80;55.40;;;;;;4962050;28;20223;-44
2023/03/31 03:20:39;;;;;;;5.13;1.23;;;14.90;55.40;;;;;;4963084;28;20066;-44
2023/03/31 03:23:06;;;;;;;4.32;0.93;;;14.80;55.40;;;;;;4963343;28;20062;-44
2023/03/31 03:25:34;;;;;;;5.25;1.30;;;14.80;55.50;;;;;;4963042;28;20050;-44
2023/03/31 03:28:02;;;;;;;8.43;1.27;;;14.80;55.60;;;;;;4962716;28;20147;-45
2023/03/31 03:30:29;;;;;;;4.20;1.23;;;14.70;55.60;;;;;;4962808;28;20487;-43
2023/03/31 03:32:57;;;;;;;5.25;1.48;;;14.70;55.60;;;;;;4961703;28;20062;-45
2023/03/31 03:35:25;;;;;;;4.80;0.95;;;14.70;55.70;;;;;;4962323;28;20050;-44
2023/03/31 03:37:52;;;;;;;4.72;1.52;;;14.70;55.70;;;;;;4967074;28;20437;-44
2023/03/31 03:40:19;;;;;;;5.20;1.20;;;14.70;55.80;;;;;;4964596;28;20085;-47
2023/03/31 03:42:47;;;;;;;4.15;1.00;;;14.70;55.90;;;;;;4965068;28;20521;-44
2023/03/31 03:45:15;;;;;;;5.15;1.20;;;14.70;55.80;;;;;;4966174;28;21215;-44
2023/03/31 03:47:42;;;;;;;33.58;13.52;;;14.60;55.80;;;;;;4967586;28;20352;-44
2023/03/31 03:50:13;;;;;;;18.42;6.93;;;14.60;55.80;;;;;;4964413;28;20055;-45
2023/03/31 03:52:41;;;;;;;11.07;3.65;;;14.60;55.90;;;;;;4965897;28;20266;-44
2023/03/31 03:55:10;;;;;;;6.82;1.92;;;14.60;55.80;;;;;;4965671;28;20126;-44
2023/03/31 03:57:38;;;;;;;4.90;1.50;;;14.60;55.90;;;;;;4966009;28;20055;-44
2023/03/31 04:00:11;;;;;;;7.10;1.50;;;14.60;55.80;;;;;;4964307;28;20411;-44
2023/03/31 04:02:40;;;;;;;8.75;1.95;;;14.60;55.90;;;;;;4969803;28;20059;-43
2023/03/31 04:05:07;;;;;;;5.15;1.40;;;14.60;55.90;;;;;;4964097;28;20075;-44
2023/03/31 04:07:34;;;;;;;6.03;1.10;;;14.50;56.00;;;;;;4965929;28;20058;-46
2023/03/31 04:10:02;;;;;;;2.40;1.00;;;14.50;56.00;;;;;;4964964;28;20423;-44
2023/03/31 04:12:29;;;;;;;5.60;1.55;;;14.50;55.90;;;;;;4965060;28;20051;-45
2023/03/31 04:14:56;;;;;;;2.35;0.90;;;14.50;55.90;;;;;;4966133;28;20065;-45
2023/03/31 04:17:31;;;;;;;9.73;2.88;;;14.50;55.90;;;;;;4966910;28;20506;-43
2023/03/31 04:20:04;;;;;;;5.15;1.45;;;14.40;55.60;;;;;;4963263;28;20057;-45
2023/03/31 04:22:34;;;;;;;5.15;1.20;;;14.40;55.40;;;;;;4966400;28;20897;-46
2023/03/31 04:25:02;;;;;;;8.23;1.40;;;14.40;55.40;;;;;;4964270;28;20065;-47
2023/03/31 04:27:32;;;;;;;4.82;0.93;;;14.40;55.50;;;;;;4965779;28;20042;-44
2023/03/31 04:29:59;;;;;;;3.58;0.90;;;14.40;55.50;;;;;;4965062;28;20058;-45
2023/03/31 04:32:27;;;;;;;5.35;1.08;;;14.40;55.70;;;;;;4965618;28;20411;-45
2023/03/31 04:35:01;;;;;;;2.80;0.95;;;14.30;55.70;;;;;;4963818;28;20391;-44
2023/03/31 04:37:33;;;;;;;4.95;1.20;;;14.30;55.80;;;;;;4964684;28;20055;-44
2023/03/31 04:40:05;;;;;;;7.25;1.00;;;14.30;56.50;;;;;;4966605;28;20495;-44
2023/03/31 04:42:32;;;;;;;6.68;1.00;;;14.30;56.00;;;;;;4965482;28;20054;-45
2023/03/31 04:44:59;;;;;;;7.90;1.55;;;14.30;56.20;;;;;;4964386;28;20863;-43
2023/03/31 04:47:27;;;;;;;11.80;1.65;;;14.30;56.30;;;;;;4962625;28;20047;-43
2023/03/31 04:49:55;;;;;;;8.77;1.10;;;14.20;56.40;;;;;;4963930;28;20054;-44
2023/03/31 04:52:22;;;;;;;7.20;0.93;;;14.20;56.50;;;;;;4965280;28;20081;-47
2023/03/31 04:54:51;;;;;;;6.75;2.00;;;14.20;56.50;;;;;;4965089;28;20054;-46
2023/03/31 04:57:18;;;;;;;5.90;1.02;;;14.20;56.70;;;;;;4965762;28;20050;-47
2023/03/31 04:59:46;;;;;;;2.47;0.82;;;14.20;56.70;;;;;;4963566;28;20059;-44
2023/03/31 05:02:14;;;;;;;7.07;1.20;;;14.10;56.70;;;;;;4961569;28;20053;-44
2023/03/31 05:04:42;;;;;;;4.82;1.33;;;14.10;56.70;;;;;;4964143;28;20341;-44
2023/03/31 05:07:09;;;;;;;5.28;1.52;;;14.10;56.80;;;;;;4965255;28;20569;-44
2023/03/31 05:09:36;;;;;;;6.20;1.30;;;14.10;56.90;;;;;;4965075;28;20069;-44
2023/03/31 05:12:05;;;;;;;8.52;1.58;;;14.10;57.00;;;;;;4966366;28;20061;-45
2023/03/31 05:14:33;;;;;;;10.23;1.77;;;14.00;57.00;;;;;;4963351;28;20062;-46
2023/03/31 05:17:00;;;;;;;7.55;1.45;;;14.00;57.00;;;;;;4964385;28;20083;-44
2023/03/31 05:19:27;;;;;;;5.95;0.90;;;14.00;56.90;;;;;;4962305;28;20525;-44
2023/03/31 05:21:56;;;;;;;8.88;1.33;;;13.90;56.90;;;;;;4962937;28;20059;-46
2023/03/31 05:24:23;;;;;;;5.25;1.08;;;13.90;57.00;;;;;;4964609;28;20062;-44
2023/03/31 05:26:51;;;;;;;6.82;1.67;;;13.90;56.90;;;;;;4963896;28;20050;-44
2023/03/31 05:29:20;;;;;;;7.95;1.23;;;13.90;57.10;;;;;;4965004;28;20050;-43
2023/03/31 05:31:47;;;;;;;6.95;1.30;;;13.90;57.00;;;;;;4965167;28;20058;-43
2023/03/31 05:34:15;;;;;;;6.97;1.13;;;13.90;56.80;;;;;;4963215;28;20065;-45
2023/03/31 05:36:43;;;;;;;17.25;5.65;;;13.90;56.80;;;;;;4965962;28;20067;-45
2023/03/31 05:39:10;;;;;;;7.70;2.45;;;13.90;56.70;;;;;;4963167;28;20051;-47
2023/03/31 05:41:37;;;;;;;5.78;1.08;;;13.90;56.80;;;;;;4963209;28;20054;-44
2023/03/31 05:44:05;;;;;;;5.93;0.90;;;13.90;56.70;;;;;;4963778;28;22857;-45
2023/03/31 05:46:33;;;;;;;5.13;1.02;;;13.80;56.60;;;;;;4965278;28;20489;-43
2023/03/31 05:49:02;;;;;;;3.10;0.57;;;13.90;56.60;;;;;;4965493;28;20066;-43
2023/03/31 05:51:29;;;;;;;5.60;0.82;;;13.90;56.60;;;;;;4965231;28;20077;-46
2023/03/31 05:53:58;;;;;;;3.42;0.75;;;13.80;56.40;;;;;;4965294;28;20480;-44
2023/03/31 05:56:26;;;;;;;2.90;0.70;;;13.90;56.40;;;;;;4965488;28;20410;-43
2023/03/31 05:58:53;;;;;;;2.55;0.70;;;13.80;56.20;;;;;;4965189;28;20054;-44
2023/03/31 06:01:22;;;;;;;1.75;0.35;;;13.80;56.10;;;;;;4967243;28;20061;-44
2023/03/31 06:03:51;;;;;;;2.83;0.55;;;13.80;56.10;;;;;;4964577;28;20513;-47
2023/03/31 06:06:19;;;;;;;3.05;0.75;;;13.80;56.20;;;;;;4964209;28;20053;-44
2023/03/31 06:08:47;;;;;;;1.52;0.40;;;13.80;56.10;;;;;;4962998;28;20066;-47
2023/03/31 06:11:18;;;;;;;1.35;0.57;;;13.80;56.10;;;;;;4964329;28;20042;-44
2023/03/31 06:13:45;;;;;;;3.10;0.70;;;13.80;56.20;;;;;;4963628;28;20494;-43
2023/03/31 06:16:14;;;;;;;5.00;1.25;;;13.80;56.30;;;;;;4964382;28;20051;-46
2023/03/31 06:18:41;;;;;;;3.47;0.75;;;13.80;56.40;;;;;;4963378;28;20058;-44
2023/03/31 06:21:13;;;;;;;4.25;1.10;;;13.80;56.40;;;;;;4963929;28;20590;-44
2023/03/31 06:23:40;;;;;;;2.67;0.93;;;13.80;56.60;;;;;;4962580;28;20054;-47
2023/03/31 06:26:08;;;;;;;4.10;0.77;;;13.80;56.60;;;;;;4963327;28;20051;-45
2023/03/31 06:28:36;;;;;;;4.05;0.90;;;13.80;56.60;;;;;;4964306;28;22056;-46
2023/03/31 06:31:05;;;;;;;2.50;0.60;;;13.80;56.50;;;;;;4963103;28;20069;-44
2023/03/31 06:33:32;;;;;;;7.32;0.90;;;13.70;56.40;;;;;;4962782;28;20058;-44
2023/03/31 06:36:03;;;;;;;2.63;0.60;;;13.70;56.30;;;;;;4963550;28;20046;-43
2023/03/31 06:38:32;;;;;;;4.28;0.90;;;13.70;56.30;;;;;;4965177;28;20837;-44
2023/03/31 06:41:00;;;;;;;2.15;0.50;;;13.70;56.30;;;;;;4964231;28;20417;-45
2023/03/31 06:43:28;;;;;;;4.57;0.80;;;13.70;56.40;;;;;;4962096;28;20537;-45
2023/03/31 06:45:56;;;;;;;2.08;0.95;;;13.70;56.40;;;;;;4962388;28;20065;-44
2023/03/31 06:48:24;;;;;;;4.47;0.90;;;13.70;56.50;;;;;;4963083;28;20398;-44
2023/03/31 06:50:53;;;;;;;2.65;0.52;;;13.80;56.60;;;;;;4962663;28;20054;-45
2023/03/31 06:53:21;;;;;;;25.85;10.15;;;13.70;56.60;;;;;;4963275;28;20514;-45
2023/03/31 06:55:50;;;;;;;12.55;4.22;;;13.80;56.80;;;;;;4964308;28;20678;-44
2023/03/31 06:58:18;;;;;;;5.55;2.08;;;13.80;56.80;;;;;;4962873;28;20642;-44
2023/03/31 07:00:46;;;;;;;1.90;0.80;;;13.80;56.90;;;;;;4962875;28;20047;-46
2023/03/31 07:03:13;;;;;;;3.80;1.00;;;13.80;57.00;;;;;;4961041;28;20074;-44
2023/03/31 07:05:40;;;;;;;2.60;0.73;;;13.80;57.10;;;;;;4962666;28;20073;-44
2023/03/31 07:08:07;;;;;;;3.75;0.88;;;13.80;57.30;;;;;;4963202;28;20410;-43
2023/03/31 07:10:35;;;;;;;5.28;1.13;;;13.80;57.30;;;;;;4966224;28;20054;-44
2023/03/31 07:13:03;;;;;;;3.15;1.00;;;13.80;57.40;;;;;;4966313;28;20062;-45
2023/03/31 07:15:30;;;;;;;4.50;1.17;;;13.90;57.60;;;;;;4967708;28;20513;-45
2023/03/31 07:18:00;;;;;;;2.08;0.57;;;13.80;57.60;;;;;;4965906;28;20047;-46
2023/03/31 07:20:29;;;;;;;1.75;0.75;;;13.90;57.60;;;;;;4965187;28;20065;-48
2023/03/31 07:22:56;;;;;;;3.20;0.85;;;13.90;57.70;;;;;;4965184;28;20046;-46
2023/03/31 07:25:24;;;;;;;8.25;0.95;;;13.90;57.70;;;;;;4965852;28;20078;-43
2023/03/31 07:27:51;;;;;;;5.00;0.90;;;13.90;57.80;;;;;;4967585;28;20058;-44
2023/03/31 07:30:20;;;;;;;3.13;0.98;;;14.00;57.80;;;;;;4965901;28;20513;-43
2023/03/31 07:32:49;;;;;;;2.60;0.70;;;14.00;57.70;;;;;;4964739;28;20050;-43
2023/03/31 07:35:18;;;;;;;2.70;0.60;;;14.10;57.70;;;;;;4964252;28;20065;-45
2023/03/31 07:37:47;;;;;;;0.80;0.50;;;14.10;57.60;;;;;;4965770;28;20055;-45
2023/03/31 07:40:18;;;;;;;2.10;0.88;;;14.10;57.50;;;;;;4964939;28;20054;-45
2023/03/31 07:42:47;;;;;;;3.35;0.50;;;14.20;57.50;;;;;;4966983;28;20363;-45
2023/03/31 07:45:16;;;;;;;3.63;0.82;;;14.20;57.40;;;;;;4965500;28;20054;-44
2023/03/31 07:47:45;;;;;;;1.27;0.60;;;14.20;57.30;;;;;;4966284;28;20066;-43
2023/03/31 07:50:13;;;;;;;1.83;0.55;;;14.30;57.20;;;;;;4964086;28;20054;-44
2023/03/31 07:52:41;;;;;;;1.77;0.60;;;14.30;57.20;;;;;;4965554;28;20070;-46
2023/03/31 07:55:08;;;;;;;5.38;0.65;;;14.40;57.10;;;;;;4963950;28;20494;-45
2023/03/31 07:57:36;;;;;;;3.17;0.80;;;14.40;56.90;;;;;;4964966;28;20058;-47
2023/03/31 08:00:07;;;;;;;3.20;0.70;;;14.50;56.80;;;;;;4965055;28;20063;-44
2023/03/31 08:02:34;;;;;;;6.53;1.00;;;14.50;56.60;;;;;;4965929;28;20054;-43
2023/03/31 08:05:03;;;;;;;4.70;0.80;;;14.60;56.50;;;;;;4963463;28;20073;-44
2023/03/31 08:07:33;;;;;;;4.00;0.77;;;14.60;56.50;;;;;;4965209;28;20380;-47
2023/03/31 08:10:00;;;;;;;2.15;0.70;;;14.60;56.40;;;;;;4968408;28;20051;-46
2023/03/31 08:12:28;;;;;;;3.70;0.98;;;14.70;56.80;;;;;;4967577;28;20057;-45
2023/03/31 08:14:55;;;;;;;3.63;0.80;;;14.70;56.40;;;;;;4966721;28;20058;-45
2023/03/31 08:17:22;;;;;;;1.10;0.70;;;14.70;56.40;;;;;;4965524;28;20050;-46
2023/03/31 08:19:50;;;;;;;3.67;1.02;;;14.80;56.50;;;;;;4964213;28;20054;-45
2023/03/31 08:22:19;;;;;;;3.17;0.82;;;14.90;56.50;;;;;;4965719;28;20499;-45
2023/03/31 08:24:47;;;;;;;3.92;1.50;;;14.90;56.50;;;;;;4964892;28;20065;-45
2023/03/31 08:27:14;;;;;;;4.63;1.20;;;15.00;56.50;;;;;;4964834;28;20054;-44
2023/03/31 08:29:41;;;;;;;5.70;1.27;;;15.10;56.40;;;;;;4965124;28;20522;-46
2023/03/31 08:32:09;;;;;;;6.47;1.77;;;15.10;56.40;;;;;;4965261;28;20088;-44
2023/03/31 08:34:36;;;;;;;4.40;1.58;;;15.20;56.50;;;;;;4963879;28;20514;-44
2023/03/31 08:37:04;;;;;;;6.28;2.50;;;15.20;56.20;;;;;;4967074;28;20058;-42
2023/03/31 08:39:33;;;;;;;7.43;3.53;;;15.30;55.90;;;;;;4965564;28;20498;-45
2023/03/31 08:42:04;;;;;;;10.90;3.25;;;15.40;55.60;;;;;;4967382;28;20046;-43
2023/03/31 08:44:36;;;;;;;4.47;1.50;;;15.40;55.50;;;;;;4966739;28;20061;-43
2023/03/31 08:47:07;;;;;;;7.85;3.42;;;15.40;55.20;;;;;;4966294;28;20061;-44
2023/03/31 08:49:42;;;;;;;7.47;3.53;;;15.50;55.00;;;;;;4963825;28;20057;-44
2023/03/31 08:52:13;;;;;;;9.60;1.77;;;15.50;54.90;;;;;;4965089;28;20057;-46
2023/03/31 08:54:44;;;;;;;5.35;1.60;;;15.50;54.70;;;;;;4964653;28;20505;-44
2023/03/31 08:57:16;;;;;;;7.15;1.63;;;15.60;54.70;;;;;;4964296;28;20051;-43
2023/03/31 08:59:45;;;;;;;3.72;1.10;;;15.60;54.60;;;;;;4963725;28;20054;-44
2023/03/31 09:02:20;;;;;;;10.30;1.77;;;15.60;54.60;;;;;;4964816;28;20510;-45
2023/03/31 09:05:10;;;;;;;6.90;1.30;;;15.70;54.50;;;;;;4963489;28;20070;-44
2023/03/31 09:07:46;;;;;;;9.27;2.30;;;15.70;54.40;;;;;;4963965;28;20530;-46
2023/03/31 09:10:29;;;;;;;5.72;1.50;;;15.70;54.20;;;;;;4965324;28;20503;-44
2023/03/31 09:13:01;;;;;;;4.85;1.60;;;15.80;54.20;;;;;;4964989;28;20541;-44
2023/03/31 09:15:36;;;;;;;4.80;1.40;;;15.90;54.30;;;;;;4964170;28;20055;-44
2023/03/31 09:18:10;;;;;;;7.05;2.08;;;15.90;54.30;;;;;;4964568;28;20058;-44
2023/03/31 09:20:39;;;;;;;;;;;16.00;54.50;;;;;;4966382;28;20047;-45
2023/03/31 09:23:18;;;;;;;5.75;1.55;;;16.00;54.40;;;;;;4964263;28;19929;-46
2023/03/31 09:25:47;;;;;;;7.65;1.85;;;16.10;54.20;;;;;;4966227;28;20055;-43
2023/03/31 09:28:20;;;;;;;8.52;1.70;;;16.20;54.00;;;;;;4966635;28;20061;-43
2023/03/31 09:30:49;;;;;;;4.80;1.42;;;16.20;53.60;;;;;;4963703;28;20413;-43
2023/03/31 09:33:20;;;;;;;5.50;1.63;;;16.20;53.30;;;;;;4962096;28;20117;-43
2023/03/31 09:35:47;;;;;;;5.70;1.60;;;16.30;53.30;;;;;;4965180;28;20051;-46
2023/03/31 09:38:15;;;;;;;6.72;1.67;;;16.30;53.10;;;;;;4964919;28;20356;-49
2023/03/31 09:40:43;;;;;;;9.05;1.52;;;16.30;52.70;;;;;;4963921;28;20059;-45
2023/03/31 09:43:19;;;;;;;16.58;4.43;;;16.30;52.50;;;;;;4964464;28;20422;-44
2023/03/31 09:45:46;;;;;;;17.33;6.55;;;16.40;52.20;;;;;;4965908;28;20054;-44
2023/03/31 09:48:18;;;;;;;16.42;6.75;;;16.40;52.40;;;;;;4964230;28;20063;-43
2023/03/31 09:50:50;;;;;;;9.82;3.38;;;16.40;52.30;;;;;;4963240;28;20057;-45
2023/03/31 09:53:21;;;;;;;7.72;2.33;;;16.40;52.20;;;;;;4964332;28;20054;-43
2023/03/31 09:55:53;;;;;;;8.98;2.28;;;16.50;52.20;;;;;;4963917;28;20396;-45
2023/03/31 09:58:23;;;;;;;8.75;2.65;;;16.50;52.00;;;;;;4964480;28;20417;-43
2023/03/31 10:01:02;;;;;;;9.50;1.67;;;16.60;51.90;;;;;;4965234;28;20061;-44
2023/03/31 10:03:35;;;;;;;7.20;1.80;;;16.60;51.50;;;;;;4962024;28;20419;-46
2023/03/31 10:06:09;;;;;;;10.07;1.65;;;16.60;51.40;;;;;;4964917;28;20055;-53
2023/03/31 10:08:39;;;;;;;5.72;1.45;;;16.60;51.50;;;;;;4962982;28;20067;-51
2023/03/31 10:11:10;;;;;;;7.50;1.92;;;16.50;51.30;;;;;;4965148;28;20507;-46
2023/03/31 10:13:46;;;;;;;5.75;1.33;;;16.50;51.70;;;;;;4962392;28;20059;-47
2023/03/31 10:16:20;;;;;;;8.40;1.70;;;16.40;51.60;;;;;;4963305;28;20631;-46
2023/03/31 10:18:48;;;;;;;7.05;1.77;;;16.40;51.60;;;;;;4964463;28;20070;-55
2023/03/31 10:21:22;;;;;;;7.82;1.92;;;16.30;51.30;;;;;;4964265;28;20069;-47
2023/03/31 10:23:50;;;;;;;9.68;2.10;;;16.30;51.30;;;;;;4964182;28;20494;-49
2023/03/31 10:26:21;;;;;;;5.95;1.23;;;16.30;51.20;;;;;;4963784;28;20062;-63
2023/03/31 10:28:51;;;;;;;4.85;1.33;;;16.20;51.10;;;;;;4965230;28;20058;-48
2023/03/31 10:31:19;;;;;;;5.55;1.38;;;16.20;51.00;;;;;;4963876;28;20070;-57
2023/03/31 10:33:48;;;;;;;9.15;1.95;;;16.20;51.10;;;;;;4962341;28;20062;-53
2023/03/31 10:36:22;;;;;;;13.05;1.80;;;16.20;51.10;;;;;;4964350;28;20050;-51
2023/03/31 10:38:52;;;;;;;7.22;1.35;;;16.20;51.10;;;;;;4963842;28;20058;-48
2023/03/31 10:41:21;;;;;;;6.50;1.67;;;16.10;51.00;;;;;;4964087;28;20054;-47
2023/03/31 10:43:52;;;;;;;6.22;1.30;;;16.10;51.00;;;;;;4965765;28;20078;-58
2023/03/31 10:46:20;;;;;;;8.95;1.80;;;16.10;51.00;;;;;;4967654;28;20058;-49
2023/03/31 10:48:47;;;;;;;8.73;1.67;;;16.10;51.00;;;;;;4966749;28;20069;-46
2023/03/31 10:51:17;;;;;;;9.73;1.67;;;16.10;51.30;;;;;;4967547;28;20392;-53
2023/03/31 10:53:46;;;;;;;9.50;1.70;;;16.10;51.30;;;;;;4968556;28;20074;-46
2023/03/31 10:56:36;;;;;;;6.63;1.80;;;16.10;51.50;;;;;;4966640;28;20507;-46
2023/03/31 10:59:25;;;;;;;8.85;1.80;;;16.10;51.70;;;;;;4966601;28;20066;-47
2023/03/31 11:02:20;;;;;;;5.97;1.90;;;16.20;52.00;;;;;;4968100;28;20491;-47
2023/03/31 11:04:56;;;;;;;8.98;1.45;;;16.20;52.40;;;;;;4957209;28;20061;-47
2023/03/31 11:07:36;;;;;;;9.50;1.65;;;16.20;52.50;;;;;;4967921;28;20734;-46
2023/03/31 11:10:26;;;;;;;20.50;6.15;;;16.30;52.90;;;;;;4968980;28;20581;-50
2023/03/31 11:13:00;;;;;;;9.38;2.38;;;16.30;52.70;;;;;;4967396;28;20426;-53
2023/03/31 11:15:36;;;;;;;7.45;1.45;;;16.30;52.80;;;;;;4966805;28;20055;-49
2023/03/31 11:18:28;;;;;;;6.85;1.73;;;16.40;52.80;;;;;;4967293;28;20478;-46
2023/03/31 11:21:02;;;;;;;8.75;2.40;;;16.40;52.80;;;;;;4966755;28;20078;-57
2023/03/31 11:23:40;;;;;;;7.50;1.52;;;16.40;52.60;;;;;;4966688;28;20407;-58
2023/03/31 11:26:12;;;;;;;6.20;1.58;;;16.50;52.30;;;;;;4967788;28;20070;-50
2023/03/31 11:28:59;;;;;;;9.38;1.88;;;16.50;52.00;;;;;;4965634;28;20055;-53
2023/03/31 11:31:43;;;;;;;10.65;2.42;;;16.50;51.50;;;;;;4966222;28;20050;-47
2023/03/31 11:34:36;;;;;;;9.00;1.77;;;16.60;51.30;;;;;;4964833;28;20594;-47
2023/03/31 11:37:31;;;;;;;7.65;2.05;;;16.60;51.00;;;;;;4965949;28;20411;-48
2023/03/31 11:40:16;;;;;;;9.50;2.00;;;16.60;50.70;;;;;;4967233;28;20058;-51
2023/03/31 11:42:49;;;;;;;9.60;2.42;;;16.60;50.60;;;;;;4965488;28;20051;-47
2023/03/31 11:45:21;;;;;;;7.87;2.00;;;16.60;50.60;;;;;;4964197;28;20058;-48
2023/03/31 11:47:55;;;;;;;6.57;1.70;;;16.70;50.50;;;;;;4964136;28;20061;-47
2023/03/31 11:50:25;;;;;;;9.98;2.40;;;16.70;50.60;;;;;;4963735;28;20485;-50
2023/03/31 11:52:58;;;;;;;8.00;2.05;;;16.70;50.70;;;;;;4965480;28;20440;-47
2023/03/31 11:55:28;;;;;;;13.45;2.33;;;16.80;50.70;;;;;;4965283;28;20066;-48
2023/03/31 11:58:02;;;;;;;8.93;1.80;;;16.80;50.60;;;;;;4962812;28;20444;-61
2023/03/31 12:00:32;;;;;;;8.35;2.75;;;16.80;50.00;;;;;;4961571;28;20051;-48
2023/03/31 12:03:07;;;;;;;6.07;1.25;;;16.90;50.00;;;;;;4963020;28;20050;-48
2023/03/31 12:05:40;;;;;;;8.57;1.92;;;16.80;49.80;;;;;;4964405;28;20050;-47
2023/03/31 12:08:12;;;;;;;10.75;2.08;;;16.90;49.80;;;;;;4961693;28;20511;-50
2023/03/31 12:10:44;;;;;;;8.38;1.60;;;16.90;49.80;;;;;;4962831;28;20062;-50
2023/03/31 12:13:33;;;;;;;7.05;2.05;;;16.90;49.60;;;;;;4962676;28;20050;-48
2023/03/31 12:16:06;;;;;;;8.80;1.80;;;16.90;49.80;;;;;;4961734;28;20077;-54
2023/03/31 12:18:38;;;;;;;5.32;1.15;;;16.80;50.20;;;;;;4963563;28;20478;-57
2023/03/31 12:21:07;;;;;;;12.82;1.35;;;16.80;50.20;;;;;;4962094;28;20054;-51
2023/03/31 12:23:41;;;;;;;6.40;1.02;;;16.70;50.30;;;;;;4966587;28;20055;-49
2023/03/31 12:26:23;;;;;;;6.63;1.27;;;16.60;50.40;;;;;;4965315;28;20069;-48
2023/03/31 12:28:57;;;;;;;3.75;0.82;;;16.50;50.40;;;;;;4965445;28;20585;-48
2023/03/31 12:31:29;;;;;;;1.75;0.70;;;16.40;50.50;;;;;;4965375;28;20050;-46
2023/03/31 12:34:00;;;;;;;2.30;0.45;;;16.40;50.70;;;;;;4964973;28;20466;-47
2023/03/31 12:36:42;;;;;;;2.00;0.50;;;16.30;51.50;;;;;;4966155;28;20054;-46
2023/03/31 12:39:23;;;;;;;2.08;0.63;;;16.20;51.00;;;;;;4965966;28;20053;-47
2023/03/31 12:42:15;;;;;;;4.57;0.73;;;16.20;50.90;;;;;;4966139;28;20085;-46
2023/03/31 12:44:51;;;;;;;2.28;0.57;;;16.10;50.90;;;;;;4965677;28;20609;-48
2023/03/31 12:47:35;;;;;;;3.95;0.77;;;16.10;50.80;;;;;;4966362;28;20054;-46
2023/03/31 12:50:23;;;;;;;6.53;0.82;;;16.00;50.90;;;;;;4964426;28;20134;-48
2023/03/31 12:52:59;;;;;;;2.97;0.45;;;16.00;51.10;;;;;;4967774;28;21262;-47
2023/03/31 12:55:36;;;;;;;4.07;0.52;;;16.00;51.20;;;;;;4968104;28;20051;-46
2023/03/31 12:58:43;;;;;;;2.45;0.65;;;16.00;51.30;;;;;;4966969;28;20055;-46
2023/03/31 13:01:16;;;;;;;2.63;0.70;;;16.00;51.50;;;;;;4966191;28;20053;-46
2023/03/31 13:03:49;;;;;;;3.65;0.65;;;16.00;51.70;;;;;;4964800;28;20065;-46
2023/03/31 13:06:50;;;;;;;2.83;0.52;;;16.00;51.70;;;;;;4964453;28;20058;-45
2023/03/31 13:09:40;;;;;;;2.33;0.60;;;16.00;51.70;;;;;;4965803;28;20406;-48
2023/03/31 13:12:09;;;;;;;3.92;0.75;;;16.10;51.90;;;;;;4964558;28;20051;-45